createdAt,value
2017-12-22T00:00:35.085Z,32.67
2017-12-22T00:03:02.670Z,31.23
2017-12-22T00:05:30.608Z,31.20
2017-12-22T00:07:58.293Z,32.43
2017-12-22T00:10:25.999Z,28.40
2017-12-22T00:12:53.956Z,33.60
2017-12-22T00:15:21.599Z,37.57
2017-12-22T00:17:50.187Z,36.03
2017-12-22T00:20:17.930Z,32.80
2017-12-22T00:22:45.552Z,24.67
2017-12-22T00:25:13.968Z,29.43
2017-12-22T00:27:41.730Z,22.00
2017-12-22T00:30:10.370Z,25.00
2017-12-22T00:32:38.183Z,22.00
2017-12-22T00:35:06.755Z,24.30
2017-12-22T00:37:35.177Z,21.00
2017-12-22T00:40:04.518Z,17.80
2017-12-22T00:42:32.142Z,20.67
2017-12-22T00:44:59.719Z,19.97
2017-12-22T00:47:28.042Z,22.20
2017-12-22T00:49:56.386Z,19.00
2017-12-22T00:52:23.978Z,20.40
2017-12-22T00:54:51.557Z,19.67
2017-12-22T00:57:19.949Z,17.40
2017-12-22T00:59:47.598Z,19.13
2017-12-22T01:02:15.962Z,19.13
2017-12-22T01:04:43.649Z,17.93
2017-12-22T01:07:11.198Z,16.93
2017-12-22T01:09:39.554Z,22.00
2017-12-22T01:12:07.137Z,20.50
2017-12-22T01:14:35.507Z,17.93
2017-12-22T01:17:08.685Z,20.10
2017-12-22T01:19:36.281Z,26.30
2017-12-22T01:22:04.602Z,20.80
2017-12-22T01:24:32.358Z,21.53
2017-12-22T01:26:59.924Z,19.70
2017-12-22T01:29:27.533Z,19.73
2017-12-22T01:31:55.894Z,19.20
2017-12-22T01:34:23.458Z,19.60
2017-12-22T01:36:51.030Z,18.93
2017-12-22T01:39:18.589Z,18.50
2017-12-22T01:41:46.187Z,23.20
2017-12-22T01:44:14.690Z,20.97
2017-12-22T01:46:42.273Z,19.87
2017-12-22T01:49:09.822Z,21.67
2017-12-22T01:51:37.409Z,19.37
2017-12-22T01:54:04.990Z,19.83
2017-12-22T01:56:32.635Z,17.40
2017-12-22T01:59:00.201Z,19.57
2017-12-22T02:01:27.765Z,16.77
2017-12-22T02:03:55.332Z,19.07
2017-12-22T02:06:22.893Z,18.23
2017-12-22T02:08:51.229Z,15.57
2017-12-22T02:11:18.972Z,14.70
2017-12-22T02:13:46.548Z,14.60
2017-12-22T02:16:14.114Z,17.50
2017-12-22T02:18:41.673Z,17.27
2017-12-22T02:21:09.270Z,16.63
2017-12-22T02:23:36.830Z,16.50
2017-12-22T02:26:04.405Z,12.80
2017-12-22T02:28:32.749Z,19.30
2017-12-22T02:31:00.310Z,14.70
2017-12-22T02:33:27.905Z,11.70
2017-12-22T02:35:55.464Z,14.70
2017-12-22T02:38:23.050Z,11.83
2017-12-22T02:40:51.377Z,10.30
2017-12-22T02:43:18.971Z,15.10
2017-12-22T02:45:46.623Z,13.77
2017-12-22T02:48:14.329Z,11.77
2017-12-22T02:50:41.897Z,14.80
2017-12-22T02:53:09.572Z,14.63
2017-12-22T02:55:37.166Z,11.57
2017-12-22T02:58:04.726Z,13.23
2017-12-22T03:00:32.290Z,13.63
2017-12-22T03:02:59.839Z,12.90
2017-12-22T03:05:27.409Z,11.27
2017-12-22T03:07:54.966Z,10.00
2017-12-22T03:10:22.589Z,10.10
2017-12-22T03:12:50.137Z,9.03
2017-12-22T03:15:17.698Z,8.20
2017-12-22T03:17:46.017Z,11.33
2017-12-22T03:20:13.581Z,9.80
2017-12-22T03:22:41.144Z,9.63
2017-12-22T03:25:08.729Z,11.10
2017-12-22T03:27:36.294Z,7.30
2017-12-22T03:30:03.819Z,8.67
2017-12-22T03:32:31.381Z,7.00
2017-12-22T03:34:58.934Z,6.00
2017-12-22T03:37:26.530Z,8.77
2017-12-22T03:39:54.070Z,6.10
2017-12-22T03:42:21.630Z,7.37
2017-12-22T03:44:49.180Z,6.57
2017-12-22T03:47:16.750Z,6.57
2017-12-22T03:49:44.320Z,6.57
2017-12-22T03:52:11.878Z,6.03
2017-12-22T03:54:39.450Z,4.67
2017-12-22T03:57:07.022Z,5.93
2017-12-22T03:59:34.574Z,4.80
2017-12-22T04:02:02.146Z,5.80
2017-12-22T04:04:29.710Z,4.70
2017-12-22T04:06:57.354Z,6.23
2017-12-22T04:09:24.942Z,6.97
2017-12-22T04:11:52.509Z,7.60
2017-12-22T04:14:20.067Z,5.67
2017-12-22T04:16:47.626Z,7.10
2017-12-22T04:19:15.176Z,5.27
2017-12-22T04:21:42.749Z,5.40
2017-12-22T04:24:10.301Z,6.20
2017-12-22T04:26:37.865Z,5.50
2017-12-22T04:29:05.422Z,5.63
2017-12-22T04:31:32.973Z,5.30
2017-12-22T04:34:00.741Z,7.83
2017-12-22T04:36:28.374Z,6.33
2017-12-22T04:38:55.933Z,7.00
2017-12-22T04:41:23.505Z,6.17
2017-12-22T04:43:51.118Z,8.00
2017-12-22T04:46:19.461Z,6.37
2017-12-22T04:48:47.042Z,6.00
2017-12-22T04:51:14.625Z,5.70
2017-12-22T04:53:42.949Z,7.30
2017-12-22T04:56:10.552Z,5.37
2017-12-22T04:58:38.122Z,9.47
2017-12-22T05:01:05.674Z,6.10
2017-12-22T05:03:33.245Z,5.40
2017-12-22T05:06:00.851Z,5.20
2017-12-22T05:08:28.426Z,5.00
2017-12-22T05:10:55.971Z,5.57
2017-12-22T05:13:23.542Z,6.90
2017-12-22T05:15:51.102Z,5.70
2017-12-22T05:18:18.653Z,5.77
2017-12-22T05:20:46.231Z,5.57
2017-12-22T05:23:13.934Z,5.47
2017-12-22T05:25:41.488Z,4.60
2017-12-22T05:28:09.099Z,5.80
2017-12-22T05:30:36.665Z,5.23
2017-12-22T05:33:04.252Z,4.73
2017-12-22T05:35:31.827Z,5.63
2017-12-22T05:37:59.370Z,4.77
2017-12-22T05:40:26.977Z,6.00
2017-12-22T05:42:55.318Z,6.37
2017-12-22T05:45:22.905Z,4.30
2017-12-22T05:47:50.489Z,4.93
2017-12-22T05:50:18.827Z,5.30
2017-12-22T05:52:46.511Z,5.63
2017-12-22T05:55:14.439Z,10.00
2017-12-22T05:57:41.978Z,4.60
2017-12-22T06:00:09.537Z,4.73
2017-12-22T06:02:37.117Z,5.10
2017-12-22T06:05:04.708Z,6.57
2017-12-22T06:07:32.279Z,6.20
2017-12-22T06:09:59.898Z,7.20
2017-12-22T06:12:27.441Z,7.00
2017-12-22T06:14:55.015Z,8.60
2017-12-22T06:17:22.566Z,7.97
2017-12-22T06:19:50.768Z,10.50
2017-12-22T06:22:18.359Z,10.43
2017-12-22T06:24:45.909Z,10.33
2017-12-22T06:27:13.478Z,13.83
2017-12-22T06:29:41.062Z,14.70
2017-12-22T06:32:09.371Z,11.27
2017-12-22T06:34:37.212Z,11.20
2017-12-22T06:37:05.581Z,10.90
2017-12-22T06:39:33.142Z,9.83
2017-12-22T06:42:00.704Z,8.67
2017-12-22T06:44:28.320Z,8.80
2017-12-22T06:46:55.869Z,7.60
2017-12-22T06:49:23.671Z,8.80
2017-12-22T06:51:51.177Z,8.93
2017-12-22T06:54:18.755Z,8.33
2017-12-22T06:56:46.349Z,8.60
2017-12-22T06:59:13.907Z,7.63
2017-12-22T07:01:41.471Z,7.27
2017-12-22T07:04:09.023Z,10.60
2017-12-22T07:06:36.634Z,5.83
2017-12-22T07:09:04.196Z,4.33
2017-12-22T07:11:31.787Z,6.20
2017-12-22T07:13:59.354Z,5.37
2017-12-22T07:16:26.931Z,5.03
2017-12-22T07:18:54.615Z,7.97
2017-12-22T07:21:22.221Z,5.90
2017-12-22T07:23:49.814Z,6.13
2017-12-22T07:26:17.389Z,8.93
2017-12-22T07:28:45.022Z,7.87
2017-12-22T07:31:12.624Z,8.50
2017-12-22T07:33:40.183Z,6.93
2017-12-22T07:36:07.767Z,6.37
2017-12-22T07:38:36.100Z,8.40
2017-12-22T07:41:04.574Z,11.50
2017-12-22T07:43:32.906Z,7.80
2017-12-22T07:46:01.230Z,9.03
2017-12-22T07:48:28.804Z,10.13
2017-12-22T07:50:56.370Z,12.30
2017-12-22T07:53:24.030Z,8.80
2017-12-22T07:55:51.581Z,7.60
2017-12-22T07:58:19.135Z,8.83
2017-12-22T08:00:46.699Z,7.20
2017-12-22T08:03:14.246Z,7.03
2017-12-22T08:05:41.859Z,7.83
2017-12-22T08:08:09.394Z,8.90
2017-12-22T08:10:36.941Z,8.27
2017-12-22T08:13:04.543Z,8.30
2017-12-22T08:15:32.114Z,10.00
2017-12-22T08:17:59.679Z,8.90
2017-12-22T08:20:27.255Z,13.07
2017-12-22T08:22:55.598Z,11.33
2017-12-22T08:25:23.152Z,11.30
2017-12-22T08:27:50.730Z,12.70
2017-12-22T08:30:18.350Z,17.43
2017-12-22T08:32:45.922Z,14.50
2017-12-22T08:35:13.494Z,13.40
2017-12-22T08:37:41.073Z,13.53
2017-12-22T08:40:08.647Z,13.93
2017-12-22T08:42:36.188Z,15.33
2017-12-22T08:45:03.751Z,19.07
2017-12-22T08:47:31.408Z,18.07
2017-12-22T08:49:59.044Z,21.43
2017-12-22T08:52:26.605Z,16.67
2017-12-22T08:54:54.183Z,17.10
2017-12-22T08:57:21.835Z,21.80
2017-12-22T08:59:49.382Z,15.57
2017-12-22T09:02:16.983Z,21.87
2017-12-22T09:04:44.533Z,23.00
2017-12-22T09:07:12.195Z,18.40
2017-12-22T09:09:39.767Z,16.50
2017-12-22T09:12:07.343Z,17.87
2017-12-22T09:14:34.916Z,18.20
2017-12-22T09:17:03.278Z,19.03
2017-12-22T09:19:30.838Z,19.07
2017-12-22T09:21:58.416Z,17.37
2017-12-22T09:24:26.002Z,17.67
2017-12-22T09:26:54.445Z,17.87
2017-12-22T09:29:22.133Z,21.30
2017-12-22T09:31:50.499Z,21.60
2017-12-22T09:34:18.057Z,20.50
2017-12-22T09:36:45.724Z,21.10
2017-12-22T09:39:13.240Z,17.50
2017-12-22T09:41:40.799Z,21.07
2017-12-22T09:44:08.542Z,14.20
2017-12-22T09:46:36.138Z,18.80
2017-12-22T09:49:03.704Z,16.47
2017-12-22T09:51:31.295Z,17.70
2017-12-22T09:53:58.838Z,16.67
2017-12-22T09:56:26.389Z,18.80
2017-12-22T09:58:54.085Z,16.50
2017-12-22T10:01:21.660Z,18.97
2017-12-22T10:03:49.274Z,18.07
2017-12-22T10:06:16.830Z,22.00
2017-12-22T10:08:44.411Z,18.40
2017-12-22T10:11:11.988Z,16.30
2017-12-22T10:13:39.558Z,18.40
2017-12-22T10:16:07.890Z,15.43
2017-12-22T10:18:35.626Z,16.67
2017-12-22T10:21:03.465Z,18.50
2017-12-22T10:23:31.113Z,20.87
2017-12-22T10:25:58.838Z,21.43
2017-12-22T10:28:26.459Z,18.80
2017-12-22T10:30:54.037Z,18.80
2017-12-22T10:33:21.584Z,18.87
2017-12-22T10:35:49.931Z,19.70
2017-12-22T10:38:18.329Z,20.23
2017-12-22T10:40:45.937Z,17.93
2017-12-22T10:43:13.508Z,18.97
2017-12-22T10:45:41.113Z,21.20
2017-12-22T10:48:08.778Z,17.40
2017-12-22T10:50:36.338Z,18.13
2017-12-22T10:53:04.913Z,17.33
2017-12-22T10:55:32.465Z,18.87
2017-12-22T10:58:00.035Z,15.23
2017-12-22T11:00:28.565Z,15.47
2017-12-22T11:02:56.144Z,18.63
2017-12-22T11:05:23.711Z,17.60
2017-12-22T11:07:51.285Z,18.53
2017-12-22T11:10:18.854Z,18.63
2017-12-22T11:12:46.447Z,15.90
2017-12-22T11:15:14.026Z,13.37
2017-12-22T11:17:42.420Z,16.57
2017-12-22T11:20:10.861Z,16.87
2017-12-22T11:22:38.431Z,14.53
2017-12-22T11:25:06.026Z,14.40
2017-12-22T11:27:33.589Z,16.07
2017-12-22T11:30:01.160Z,15.63
2017-12-22T11:32:28.805Z,16.50
2017-12-22T11:34:56.397Z,16.70
2017-12-22T11:37:24.018Z,16.30
2017-12-22T11:39:51.595Z,17.00
2017-12-22T11:42:19.211Z,18.73
2017-12-22T11:44:46.836Z,17.00
2017-12-22T11:47:14.444Z,16.23
2017-12-22T11:49:42.042Z,15.40
2017-12-22T11:52:10.382Z,17.03
2017-12-22T11:54:38.014Z,13.13
2017-12-22T11:57:05.617Z,19.37
2017-12-22T11:59:33.360Z,14.53
2017-12-22T12:02:01.771Z,14.70
2017-12-22T12:04:29.478Z,16.27
2017-12-22T12:06:58.095Z,15.13
2017-12-22T12:09:25.677Z,15.77
2017-12-22T12:11:53.304Z,17.73
2017-12-22T12:14:20.957Z,16.70
2017-12-22T12:16:48.533Z,17.70
2017-12-22T12:19:16.110Z,17.00
2017-12-22T12:21:43.666Z,16.00
2017-12-22T12:24:11.237Z,17.33
2017-12-22T12:26:38.798Z,17.43
2017-12-22T12:29:06.410Z,17.10
2017-12-22T12:31:33.990Z,17.77
2017-12-22T12:34:01.605Z,18.47
2017-12-22T12:36:29.950Z,15.47
2017-12-22T12:38:58.340Z,21.13
2017-12-22T12:41:25.918Z,18.70
2017-12-22T12:43:53.551Z,20.00
2017-12-22T12:46:21.235Z,16.40
2017-12-22T12:48:48.852Z,17.17
2017-12-22T12:51:17.181Z,17.00
2017-12-22T12:53:44.774Z,19.43
2017-12-22T12:56:13.211Z,16.97
2017-12-22T12:58:40.821Z,16.60
2017-12-22T13:01:08.386Z,18.33
2017-12-22T13:03:36.749Z,17.13
2017-12-22T13:06:04.381Z,18.30
2017-12-22T13:08:32.642Z,16.00
2017-12-22T13:11:00.251Z,16.63
2017-12-22T13:13:27.843Z,14.73
2017-12-22T13:15:56.185Z,11.30
2017-12-22T13:18:24.506Z,18.70
2017-12-22T13:20:52.253Z,14.53
2017-12-22T13:23:19.829Z,15.20
2017-12-22T13:25:47.530Z,16.63
2017-12-22T13:28:15.114Z,15.97
2017-12-22T13:30:43.443Z,17.47
2017-12-22T13:33:11.001Z,16.20
2017-12-22T13:35:38.555Z,18.43
2017-12-22T13:38:06.130Z,14.47
2017-12-22T13:40:33.699Z,13.17
2017-12-22T13:43:01.289Z,15.33
2017-12-22T13:45:29.641Z,14.83
2017-12-22T13:47:57.842Z,12.23
2017-12-22T13:50:25.394Z,11.53
2017-12-22T13:52:52.966Z,13.07
2017-12-22T13:55:20.535Z,13.57
2017-12-22T13:57:48.888Z,13.40
2017-12-22T14:00:16.477Z,13.80
2017-12-22T14:02:45.100Z,12.87
2017-12-22T14:05:13.013Z,11.90
2017-12-22T14:07:40.714Z,11.10
2017-12-22T14:10:08.314Z,11.13
2017-12-22T14:12:35.931Z,13.83
2017-12-22T14:15:04.409Z,13.77
2017-12-22T14:17:32.914Z,13.23
2017-12-22T14:20:00.489Z,14.20
2017-12-22T14:22:28.252Z,17.40
2017-12-22T14:25:00.361Z,14.67
2017-12-22T14:27:28.865Z,15.83
2017-12-22T14:29:57.195Z,17.60
2017-12-22T14:32:24.873Z,16.03
2017-12-22T14:34:52.482Z,19.13
2017-12-22T14:37:20.281Z,14.53
2017-12-22T14:39:47.919Z,17.80
2017-12-22T14:42:15.608Z,13.87
2017-12-22T14:44:43.415Z,15.70
2017-12-22T14:47:12.167Z,15.83
2017-12-22T14:49:40.806Z,16.60
2017-12-22T14:52:08.502Z,17.47
2017-12-22T14:54:36.283Z,18.90
2017-12-22T14:57:04.708Z,16.67
2017-12-22T14:59:33.171Z,16.60
2017-12-22T15:02:01.513Z,15.83
2017-12-22T15:04:29.084Z,16.67
2017-12-22T15:06:56.711Z,13.10
2017-12-22T15:09:24.253Z,16.13
2017-12-22T15:11:52.001Z,14.00
2017-12-22T15:14:19.570Z,13.30
2017-12-22T15:16:47.157Z,13.53
2017-12-22T15:19:14.745Z,13.57
2017-12-22T15:21:43.085Z,12.67
2017-12-22T15:24:10.676Z,14.10
2017-12-22T15:26:39.021Z,15.73
2017-12-22T15:29:06.614Z,13.33
2017-12-22T15:31:34.935Z,13.40
2017-12-22T15:34:02.655Z,17.17
2017-12-22T15:36:30.989Z,14.23
2017-12-22T15:38:58.651Z,18.73
2017-12-22T15:41:26.257Z,14.20
2017-12-22T15:43:53.842Z,16.63
2017-12-22T15:46:22.193Z,16.27
2017-12-22T15:48:49.785Z,16.77
2017-12-22T15:51:18.138Z,20.33
2017-12-22T15:53:45.738Z,16.40
2017-12-22T15:56:13.306Z,24.37
2017-12-22T15:58:40.907Z,16.27
2017-12-22T16:01:08.455Z,13.63
2017-12-22T16:03:36.068Z,14.47
2017-12-22T16:06:04.412Z,15.07
2017-12-22T16:08:32.152Z,12.30
2017-12-22T16:10:59.694Z,12.97
2017-12-22T16:13:27.264Z,17.17
2017-12-22T16:15:54.854Z,14.47
2017-12-22T16:18:22.568Z,14.17
2017-12-22T16:20:50.892Z,19.50
2017-12-22T16:23:18.464Z,24.20
2017-12-22T16:25:46.026Z,15.90
2017-12-22T16:28:13.691Z,15.37
2017-12-22T16:30:41.373Z,17.73
2017-12-22T16:33:08.953Z,18.63
2017-12-22T16:35:37.472Z,17.57
2017-12-22T16:38:05.104Z,15.80
2017-12-22T16:40:33.445Z,18.10
2017-12-22T16:43:01.030Z,17.17
2017-12-22T16:45:29.562Z,16.50
2017-12-22T16:47:57.238Z,20.60
2017-12-22T16:50:25.027Z,19.57
2017-12-22T16:52:53.757Z,18.30
2017-12-22T16:55:22.162Z,15.60
2017-12-22T16:57:50.019Z,19.43
2017-12-22T17:00:17.790Z,16.27
2017-12-22T17:02:45.378Z,18.50
2017-12-22T17:05:13.098Z,16.27
2017-12-22T17:07:41.486Z,15.80
2017-12-22T17:10:09.125Z,15.73
2017-12-22T17:12:36.723Z,16.03
2017-12-22T17:15:04.594Z,17.97
2017-12-22T17:17:32.298Z,16.87
2017-12-22T17:19:59.918Z,18.63
2017-12-22T17:22:27.543Z,15.03
2017-12-22T17:24:55.367Z,16.03
2017-12-22T17:27:23.091Z,16.60
2017-12-22T17:29:51.456Z,17.00
2017-12-22T17:32:19.278Z,16.17
2017-12-22T17:34:46.991Z,18.17
2017-12-22T17:37:15.588Z,17.90
2017-12-22T17:39:43.174Z,19.90
2017-12-22T17:42:10.758Z,14.43
2017-12-22T17:44:38.328Z,18.87
2017-12-22T17:47:05.903Z,16.30
2017-12-22T17:49:34.068Z,16.80
2017-12-22T17:52:01.671Z,19.27
2017-12-22T17:54:29.451Z,20.17
2017-12-22T17:56:57.044Z,18.87
2017-12-22T17:59:24.613Z,17.53
2017-12-22T18:01:52.238Z,18.83
2017-12-22T18:04:19.815Z,17.17
2017-12-22T18:06:47.383Z,18.90
2017-12-22T18:09:14.979Z,17.60
2017-12-22T18:11:42.522Z,21.03
2017-12-22T18:14:10.175Z,16.97
2017-12-22T18:16:37.766Z,15.27
2017-12-22T18:19:05.367Z,19.53
2017-12-22T18:21:32.950Z,24.33
2017-12-22T18:24:00.547Z,19.13
2017-12-22T18:26:34.429Z,21.07
2017-12-22T18:29:02.021Z,19.17
2017-12-22T18:31:33.236Z,20.93
2017-12-22T18:34:00.775Z,18.40
2017-12-22T18:36:28.401Z,21.20
2017-12-22T18:38:55.962Z,21.67
2017-12-22T18:41:23.606Z,22.50
2017-12-22T18:43:51.441Z,31.23
2017-12-22T18:46:19.042Z,24.00
2017-12-22T18:48:46.612Z,23.73
2017-12-22T18:51:14.946Z,28.67
2017-12-22T18:53:42.540Z,31.13
2017-12-22T18:56:10.130Z,29.30
2017-12-22T18:58:37.683Z,26.30
2017-12-22T19:01:05.263Z,25.87
2017-12-22T19:03:32.860Z,28.37
2017-12-22T19:06:01.193Z,35.00
2017-12-22T19:08:28.773Z,30.53
2017-12-22T19:10:56.518Z,33.33
2017-12-22T19:13:24.080Z,35.70
2017-12-22T19:15:51.671Z,36.03
2017-12-22T19:18:19.241Z,38.43
2017-12-22T19:20:46.801Z,42.20
2017-12-22T19:23:14.398Z,42.43
2017-12-22T19:25:42.734Z,48.10
2017-12-22T19:28:10.299Z,46.30
2017-12-22T19:30:37.877Z,47.93
2017-12-22T19:33:05.586Z,48.30
2017-12-22T19:35:33.162Z,48.67
2017-12-22T19:38:00.750Z,54.70
2017-12-22T19:40:28.329Z,57.07
2017-12-22T19:42:56.895Z,43.70
2017-12-22T19:45:24.449Z,60.77
2017-12-22T19:47:52.915Z,45.30
2017-12-22T19:50:20.484Z,55.23
2017-12-22T19:52:48.085Z,53.80
2017-12-22T19:55:16.602Z,59.53
2017-12-22T19:57:44.168Z,43.97
2017-12-22T20:00:11.757Z,64.53
2017-12-22T20:02:40.379Z,54.27
2017-12-22T20:05:08.750Z,51.90
2017-12-22T20:07:37.075Z,38.73
2017-12-22T20:10:04.640Z,31.57
2017-12-22T20:12:32.357Z,34.37
2017-12-22T20:15:01.408Z,40.57
2017-12-22T20:17:29.214Z,32.13
2017-12-22T20:19:59.309Z,38.43
2017-12-22T20:22:26.933Z,37.40
2017-12-22T20:24:55.366Z,31.37
2017-12-22T20:27:23.004Z,29.83
2017-12-22T20:29:51.071Z,30.90
2017-12-22T20:32:18.921Z,31.73
2017-12-22T20:34:47.498Z,28.83
2017-12-22T20:37:16.029Z,38.17
2017-12-22T20:39:43.666Z,31.90
2017-12-22T20:42:11.474Z,26.13
2017-12-22T20:44:39.103Z,25.40
2017-12-22T20:47:06.777Z,25.47
2017-12-22T20:49:34.449Z,30.17
2017-12-22T20:52:02.122Z,23.40
2017-12-22T20:54:29.960Z,21.13
2017-12-22T20:56:57.634Z,25.00
2017-12-22T20:59:25.255Z,24.63
2017-12-22T21:01:53.717Z,28.00
2017-12-22T21:04:21.671Z,20.60
2017-12-22T21:06:49.321Z,22.53
2017-12-22T21:09:17.134Z,26.83
2017-12-22T21:11:45.782Z,25.53
2017-12-22T21:14:13.372Z,36.37
2017-12-22T21:16:41.009Z,26.53
2017-12-22T21:19:08.595Z,24.00
2017-12-22T21:21:36.197Z,28.57
2017-12-22T21:24:03.810Z,30.13
2017-12-22T21:26:31.382Z,34.47
2017-12-22T21:28:59.171Z,31.07
2017-12-22T21:31:26.911Z,25.93
2017-12-22T21:33:54.586Z,29.83
2017-12-22T21:36:22.944Z,24.90
2017-12-22T21:38:50.534Z,19.67
2017-12-22T21:41:18.237Z,21.80
2017-12-22T21:43:45.878Z,22.40
2017-12-22T21:46:13.496Z,20.90
2017-12-22T21:48:41.901Z,27.03
2017-12-22T21:51:09.526Z,19.97
2017-12-22T21:53:37.129Z,18.87
2017-12-22T21:56:04.722Z,21.40
2017-12-22T21:58:32.439Z,24.53
2017-12-22T22:01:00.976Z,18.17
2017-12-22T22:03:28.604Z,21.63
2017-12-22T22:05:56.206Z,17.80
2017-12-22T22:08:24.148Z,22.93
2017-12-22T22:10:51.915Z,20.90
2017-12-22T22:13:19.588Z,17.27
2017-12-22T22:15:47.225Z,19.93
2017-12-22T22:18:14.873Z,23.00
2017-12-22T22:20:43.261Z,21.63
2017-12-22T22:23:12.626Z,27.13
2017-12-22T22:25:40.210Z,25.03
2017-12-22T22:28:08.735Z,31.03
2017-12-22T22:30:36.484Z,26.83
2017-12-22T22:33:04.254Z,24.20
2017-12-22T22:35:32.031Z,27.47
2017-12-22T22:37:59.716Z,25.40
2017-12-22T22:40:27.331Z,32.03
2017-12-22T22:42:58.386Z,33.23
2017-12-22T22:45:26.138Z,39.00
2017-12-22T22:47:54.618Z,48.53
2017-12-22T22:50:22.957Z,41.93
2017-12-22T22:52:50.676Z,43.93
2017-12-22T22:55:18.331Z,41.80
2017-12-22T22:57:46.706Z,50.40
2017-12-22T23:00:15.040Z,49.13
2017-12-22T23:02:42.797Z,61.10
2017-12-22T23:05:10.389Z,44.30
2017-12-22T23:07:38.835Z,39.57
2017-12-22T23:10:06.423Z,43.93
2017-12-22T23:12:44.382Z,41.83
2017-12-22T23:15:12.462Z,50.07
2017-12-22T23:17:40.124Z,41.90
2017-12-22T23:20:07.758Z,43.60
2017-12-22T23:22:35.462Z,41.33
2017-12-22T23:25:03.024Z,42.00
2017-12-22T23:27:30.629Z,43.00
2017-12-22T23:29:58.239Z,39.80
2017-12-22T23:32:25.885Z,49.40
2017-12-22T23:34:53.557Z,44.20
2017-12-22T23:37:21.172Z,53.90
2017-12-22T23:39:48.970Z,47.60
2017-12-22T23:42:16.521Z,45.20
2017-12-22T23:44:44.720Z,46.80
2017-12-22T23:47:12.289Z,48.90
2017-12-22T23:49:40.642Z,48.43
2017-12-22T23:52:08.244Z,48.77
2017-12-22T23:54:36.896Z,48.97
2017-12-22T23:57:04.465Z,47.83
2017-12-22T23:59:32.062Z,50.20
